Nogliki, Russia
Current Conditions -  °F | °C
As of 11:30 PM on Friday 19 Dec 2014 (Local Time) from UHSS Reporting Station
Snow Showers Snow Showers  
Wind Chill:   Ceiling: 1500
Heat Index: 12°   Visibility: 2.1mi
Dew Point: 10°   Wind: 4mph
Humidity: 92%   Direction: 150°SSE
Pressure: 30.09"   Gusts: NA
Location:  51.83°N, 143.11°E
Report Text: UHSS 191230Z 15002MPS 3500 SHSN BKN015CB M11/M12 Q1019 NOSIGRMK MT OBSC QFE762/1017 19820340
Loading
Personal Weather Stations






























Interactive Weather Map New forecast layout! Learn more

10-Day Weather Forecast

Advertisements
Track Severe Weather on mobile